Mirgab Vi — ZGAO4 — position and weather

sailwx.info

Track history (hours):
 
Tides and Currents Weather Stations Pressure Air Temp Water Temp Dewpoint Dewpoint Depression Visibility Wind Speed Wind Dir Waves Ship Positions

Mirgab Vi

Last reported at 2015-Jul-30 17:28 UTC. Time now 2015-Jul-31 09:22 UTC.
Position N 42°34' E 008°46'.

Length 49 m; draft 2.9 m.

Type: Pleasure craft. MMSI: 319394000.

Date/timePositionNaut miles runAvg speedWind from/ knotsBaromVisibWave heightAir tempDewpointWater temp
2015-Jul-30 17:28N 42°34' E 008°46'9 7.8
2015-Jul-30 16:22N 42°39' E 008°37'1012.3
2015-Jul-30 15:34N 42°45' E 008°26'1912.9
2015-Jul-30 14:06N 42°56' E 008°05'813.1
2015-Jul-30 13:32N 43°01' E 007°57'4013.0
2015-Jul-30 10:25N 43°25' E 007°12'1011.2
2015-Jul-30 09:33N 43°31' E 007°01'1 0.7
2015-Jul-30 08:22N 43°31' E 007°03'2 2.0
2015-Jul-30 07:33N 43°32' E 007°02'0 0.0
2015-Jul-30 06:33N 43°32' E 007°02'0 0.0
2015-Jul-30 04:15N 43°32' E 007°02'0 0.0
2015-Jul-30 03:15N 43°32' E 007°02'0 0.0
2015-Jul-30 02:33N 43°32' E 007°02'0 0.0
2015-Jul-30 01:33N 43°32' E 007°02'0 0.0
2015-Jul-30 00:27N 43°32' E 007°02'0 0.0
2015-Jul-29 23:33N 43°32' E 007°02'0 0.0
2015-Jul-29 21:33N 43°32' E 007°02'0 0.0
2015-Jul-29 19:33N 43°32' E 007°02'0 0.0
2015-Jul-29 18:33N 43°32' E 007°02'0 0.0
2015-Jul-29 17:27N 43°32' E 007°02'0 0.0
2015-Jul-29 16:27N 43°32' E 007°02'0 0.0
2015-Jul-29 15:33N 43°32' E 007°02'0 0.0
2015-Jul-29 14:18N 43°32' E 007°02'0 0.0
2015-Jul-29 13:33N 43°32' E 007°02'0 0.0
2015-Jul-29 12:33N 43°32' E 007°02'0 0.0
2015-Jul-29 11:27N 43°32' E 007°02'0 0.0
2015-Jul-29 10:21N 43°32' E 007°02'0 0.0
2015-Jul-29 09:33N 43°32' E 007°02'0 0.0
2015-Jul-29 08:21N 43°32' E 007°02'0 0.0
2015-Jul-29 07:33N 43°32' E 007°02'0 0.0
2015-Jul-29 06:30N 43°32' E 007°02'0 0.0
2015-Jul-29 05:33N 43°32' E 007°02'0 0.0
2015-Jul-29 04:30N 43°32' E 007°02'0 0.0
2015-Jul-29 03:33N 43°32' E 007°02'0 0.0
2015-Jul-29 02:27N 43°32' E 007°02'0 0.0
2015-Jul-29 01:33N 43°32' E 007°02'0 0.0
2015-Jul-29 00:33N 43°32' E 007°02'0 0.0
2015-Jul-28 23:33N 43°32' E 007°02'0 0.0
2015-Jul-28 22:33N 43°32' E 007°02'0 0.0
2015-Jul-28 21:33N 43°32' E 007°02'0 0.0
2015-Jul-28 20:18N 43°32' E 007°02'0 0.0
2015-Jul-28 19:27N 43°32' E 007°02'0 0.0
2015-Jul-28 18:33N 43°32' E 007°02'0 0.0
2015-Jul-28 16:27N 43°32' E 007°02'0 0.0
2015-Jul-28 15:33N 43°32' E 007°02'0 0.0
2015-Jul-28 14:21N 43°32' E 007°02'0 0.0
2015-Jul-28 13:27N 43°32' E 007°02'1 1.4
2015-Jul-28 12:33N 43°31' E 007°02'1 0.2
2015-Jul-28 09:16N 43°31' E 007°02'0 0.3
2015-Jul-28 08:33N 43°31' E 007°02'2 1.2
2015-Jul-28 07:13N 43°32' E 007°02'0 0.0
2015-Jul-28 05:31N 43°32' E 007°02'0 0.0
2015-Jul-28 00:28N 43°32' E 007°02'0 0.0
2015-Jul-27 23:13N 43°32' E 007°02'0 0.0
2015-Jul-27 21:31N 43°32' E 007°02'0 0.0
2015-Jul-27 19:25N 43°32' E 007°02'0 0.0
2015-Jul-27 18:07N 43°32' E 007°02'0 0.0
2015-Jul-27 17:16N 43°32' E 007°02'0 0.0
2015-Jul-27 16:19N 43°32' E 007°02'0 0.0
2015-Jul-27 15:13N 43°32' E 007°02'0 0.0
2015-Jul-27 14:25N 43°32' E 007°02'0 0.0
2015-Jul-27 12:25N 43°32' E 007°02'0 0.0
2015-Jul-27 10:28N 43°32' E 007°02'0 0.0
2015-Jul-27 09:31N 43°32' E 007°02'0 0.0
2015-Jul-27 08:31N 43°32' E 007°02'0 0.0
2015-Jul-27 07:14N 43°32' E 007°02'0 0.0
2015-Jul-27 06:31N 43°32' E 007°02'0 0.0
2015-Jul-27 05:31N 43°32' E 007°02'0 0.0
2015-Jul-27 04:25N 43°32' E 007°02'0 0.0
2015-Jul-27 03:25N 43°32' E 007°02'0 0.0
2015-Jul-27 02:25N 43°32' E 007°02'0 0.0
2015-Jul-27 01:25N 43°32' E 007°02'0 0.0
2015-Jul-27 00:07N 43°32' E 007°02'0 0.0
2015-Jul-26 23:31N 43°32' E 007°02'0 0.0
2015-Jul-26 21:31N 43°32' E 007°02'0 0.0
2015-Jul-26 20:31N 43°32' E 007°02'0 0.0
2015-Jul-26 19:31N 43°32' E 007°02'0 0.0
2015-Jul-26 18:19N 43°32' E 007°02'0 0.0
2015-Jul-26 17:15N 43°32' E 007°02'0 0.0
2015-Jul-26 16:25N 43°32' E 007°02'0 0.0
2015-Jul-26 15:19N 43°32' E 007°02'0 0.0
2015-Jul-26 14:16N 43°32' E 007°02'0 0.0
2015-Jul-26 13:33N 43°32' E 007°02'0 0.0
2015-Jul-26 07:34N 43°32' E 007°02'0 0.0
2015-Jul-26 00:22N 43°32' E 007°02'0 0.0
2015-Jul-25 23:10N 43°32' E 007°02'0 0.0
2015-Jul-25 21:22N 43°32' E 007°02'0 0.0
2015-Jul-25 19:31N 43°32' E 007°02'0 0.0
2015-Jul-25 18:28N 43°32' E 007°02'0 0.0
2015-Jul-25 17:22N 43°32' E 007°02'0 0.0
2015-Jul-25 16:16N 43°32' E 007°02'0 0.0
2015-Jul-25 14:05N 43°32' E 007°02'0 0.0
2015-Jul-25 13:28N 43°32' E 007°02'0 0.0
2015-Jul-25 11:22N 43°32' E 007°02'0 0.0
2015-Jul-25 10:28N 43°32' E 007°02'0 0.0
2015-Jul-25 08:16N 43°32' E 007°02'0 0.1
2015-Jul-25 07:33N 43°32' E 007°02'1110.6
2015-Jul-25 06:32N 43°24' E 006°53'1111.7
2015-Jul-25 05:33N 43°18' E 006°40'2 0.1
2015-Jul-24 16:04N 43°16' E 006°38'0 0.0
2015-Jul-24 15:04N 43°16' E 006°38'0 0.0
2015-Jul-24 12:16N 43°16' E 006°38'0 0.0
2015-Jul-24 11:28N 43°16' E 006°38'0 0.0
2015-Jul-24 10:16N 43°16' E 006°38'0 0.0
2015-Jul-24 09:22N 43°16' E 006°38'0 0.0
2015-Jul-24 08:22N 43°16' E 006°38'0 0.0
2015-Jul-24 07:28N 43°16' E 006°38'0 0.0
2015-Jul-24 06:10N 43°16' E 006°38'0 0.0
2015-Jul-24 05:22N 43°16' E 006°38'0 0.0
2015-Jul-24 04:22N 43°16' E 006°38'0 0.0
2015-Jul-24 03:28N 43°16' E 006°38'0 0.0
2015-Jul-24 02:28N 43°16' E 006°38'0 0.0
2015-Jul-24 01:04N 43°16' E 006°38'0 0.0
2015-Jul-24 00:28N 43°16' E 006°38'0 0.0
2015-Jul-23 23:28N 43°16' E 006°38'0 0.0
2015-Jul-23 22:28N 43°16' E 006°38'0 0.0
2015-Jul-23 21:28N 43°16' E 006°38'0 0.0
2015-Jul-23 16:28N 43°16' E 006°38'1 1.3
2015-Jul-23 15:32N 43°16' E 006°40'0 0.0
2015-Jul-23 14:31N 43°16' E 006°40'0 0.0
2015-Jul-23 13:13N 43°16' E 006°40'0 0.0
2015-Jul-23 12:28N 43°16' E 006°40'0 0.0
2015-Jul-23 11:22N 43°16' E 006°40'0 0.0
2015-Jul-23 10:31N 43°16' E 006°40'0 0.0
2015-Jul-23 09:22N 43°16' E 006°40'0 0.0
2015-Jul-23 08:31N 43°16' E 006°40'1 1.2
2015-Jul-23 07:32N 43°16' E 006°38'0 0.0
2015-Jul-23 06:31N 43°16' E 006°38'0 0.0
2015-Jul-23 05:07N 43°16' E 006°38'0 0.0
2015-Jul-22 19:13N 43°16' E 006°38'0 0.0
2015-Jul-22 18:31N 43°16' E 006°38'0 0.0
2015-Jul-22 17:31N 43°16' E 006°38'0 0.0
2015-Jul-22 16:33N 43°16' E 006°38'4 3.8
2015-Jul-22 15:33N 43°19' E 006°42'1 1.2
2015-Jul-22 14:27N 43°19' E 006°40'0 0.0
2015-Jul-22 13:27N 43°19' E 006°40'0 0.0
2015-Jul-22 12:33N 43°19' E 006°40'0 0.0
2015-Jul-22 11:27N 43°19' E 006°40'0 0.0
2015-Jul-22 10:30N 43°19' E 006°40'0 0.0
2015-Jul-22 09:27N 43°19' E 006°40'2 2.4
2015-Jul-22 08:33N 43°20' E 006°43'1211.7
2015-Jul-22 07:29N 43°27' E 006°57'6 6.8
2015-Jul-22 06:33N 43°32' E 007°02'0 0.0
2015-Jul-22 05:31N 43°32' E 007°02'0 0.0
2015-Jul-22 04:31N 43°32' E 007°02'0 0.0
2015-Jul-22 02:04N 43°32' E 007°02'0 0.0
2015-Jul-22 00:31N 43°32' E 007°02'0 0.0
2015-Jul-21 23:19N 43°32' E 007°02'0 0.0
2015-Jul-21 22:33N 43°32' E 007°02'0 0.0
2015-Jul-21 21:33N 43°32' E 007°02'0 0.0
2015-Jul-21 20:33N 43°32' E 007°02'0 0.0
2015-Jul-21 19:32N 43°32' E 007°02'0 0.0
2015-Jul-21 18:33N 43°32' E 007°02'0 0.0
2015-Jul-21 17:33N 43°32' E 007°02'0 0.0
2015-Jul-21 16:33N 43°32' E 007°02'0 0.0
2015-Jul-21 15:33N 43°32' E 007°02'1 1.4
2015-Jul-21 14:32N 43°31' E 007°01'1010.6
2015-Jul-21 13:33N 43°36' E 007°14'7 4.9
2015-Jul-21 12:10N 43°42' E 007°19'0 0.0
2015-Jul-21 10:22N 43°42' E 007°19'0 0.0
2015-Jul-21 07:04N 43°42' E 007°19'3 4.9
2015-Jul-21 06:33N 43°42' E 007°23'  
Track history (hours):
 
Tides and Currents Weather Stations Pressure Air Temp Water Temp Dewpoint Dewpoint Depression Visibility Wind Speed Wind Dir Waves Ship Positions

Mirgab Vi

Last reported at 2015-Jul-30 17:28 UTC. Time now 2015-Jul-31 09:22 UTC.
Position N 42°34' E 008°46'.

Length 49 m; draft 2.9 m.

Type: Pleasure craft. MMSI: 319394000.

Date/timePositionNaut miles runAvg speedWind from/ knotsBaromVisibWave heightAir tempDewpointWater temp
2015-Jul-30 17:28N 42°34' E 008°46'9 7.8
2015-Jul-30 16:22N 42°39' E 008°37'1012.3
2015-Jul-30 15:34N 42°45' E 008°26'1912.9
2015-Jul-30 14:06N 42°56' E 008°05'813.1
2015-Jul-30 13:32N 43°01' E 007°57'4013.0
2015-Jul-30 10:25N 43°25' E 007°12'1011.2
2015-Jul-30 09:33N 43°31' E 007°01'1 0.7
2015-Jul-30 08:22N 43°31' E 007°03'2 2.0
2015-Jul-30 07:33N 43°32' E 007°02'0 0.0
2015-Jul-30 06:33N 43°32' E 007°02'0 0.0
2015-Jul-30 04:15N 43°32' E 007°02'0 0.0
2015-Jul-30 03:15N 43°32' E 007°02'0 0.0
2015-Jul-30 02:33N 43°32' E 007°02'0 0.0
2015-Jul-30 01:33N 43°32' E 007°02'0 0.0
2015-Jul-30 00:27N 43°32' E 007°02'0 0.0
2015-Jul-29 23:33N 43°32' E 007°02'0 0.0
2015-Jul-29 21:33N 43°32' E 007°02'0 0.0
2015-Jul-29 19:33N 43°32' E 007°02'0 0.0
2015-Jul-29 18:33N 43°32' E 007°02'0 0.0
2015-Jul-29 17:27N 43°32' E 007°02'0 0.0
2015-Jul-29 16:27N 43°32' E 007°02'0 0.0
2015-Jul-29 15:33N 43°32' E 007°02'0 0.0
2015-Jul-29 14:18N 43°32' E 007°02'0 0.0
2015-Jul-29 13:33N 43°32' E 007°02'0 0.0
2015-Jul-29 12:33N 43°32' E 007°02'0 0.0
2015-Jul-29 11:27N 43°32' E 007°02'0 0.0
2015-Jul-29 10:21N 43°32' E 007°02'0 0.0
2015-Jul-29 09:33N 43°32' E 007°02'0 0.0
2015-Jul-29 08:21N 43°32' E 007°02'0 0.0
2015-Jul-29 07:33N 43°32' E 007°02'0 0.0
2015-Jul-29 06:30N 43°32' E 007°02'0 0.0
2015-Jul-29 05:33N 43°32' E 007°02'0 0.0
2015-Jul-29 04:30N 43°32' E 007°02'0 0.0
2015-Jul-29 03:33N 43°32' E 007°02'0 0.0
2015-Jul-29 02:27N 43°32' E 007°02'0 0.0
2015-Jul-29 01:33N 43°32' E 007°02'0 0.0
2015-Jul-29 00:33N 43°32' E 007°02'0 0.0
2015-Jul-28 23:33N 43°32' E 007°02'0 0.0
2015-Jul-28 22:33N 43°32' E 007°02'0 0.0
2015-Jul-28 21:33N 43°32' E 007°02'0 0.0
2015-Jul-28 20:18N 43°32' E 007°02'0 0.0
2015-Jul-28 19:27N 43°32' E 007°02'0 0.0
2015-Jul-28 18:33N 43°32' E 007°02'0 0.0
2015-Jul-28 16:27N 43°32' E 007°02'0 0.0
2015-Jul-28 15:33N 43°32' E 007°02'0 0.0
2015-Jul-28 14:21N 43°32' E 007°02'0 0.0
2015-Jul-28 13:27N 43°32' E 007°02'1 1.4
2015-Jul-28 12:33N 43°31' E 007°02'1 0.2
2015-Jul-28 09:16N 43°31' E 007°02'0 0.3
2015-Jul-28 08:33N 43°31' E 007°02'2 1.2
2015-Jul-28 07:13N 43°32' E 007°02'0 0.0
2015-Jul-28 05:31N 43°32' E 007°02'0 0.0
2015-Jul-28 00:28N 43°32' E 007°02'0 0.0
2015-Jul-27 23:13N 43°32' E 007°02'0 0.0
2015-Jul-27 21:31N 43°32' E 007°02'0 0.0
2015-Jul-27 19:25N 43°32' E 007°02'0 0.0
2015-Jul-27 18:07N 43°32' E 007°02'0 0.0
2015-Jul-27 17:16N 43°32' E 007°02'0 0.0
2015-Jul-27 16:19N 43°32' E 007°02'0 0.0
2015-Jul-27 15:13N 43°32' E 007°02'0 0.0
2015-Jul-27 14:25N 43°32' E 007°02'0 0.0
2015-Jul-27 12:25N 43°32' E 007°02'0 0.0
2015-Jul-27 10:28N 43°32' E 007°02'0 0.0
2015-Jul-27 09:31N 43°32' E 007°02'0 0.0
2015-Jul-27 08:31N 43°32' E 007°02'0 0.0
2015-Jul-27 07:14N 43°32' E 007°02'0 0.0
2015-Jul-27 06:31N 43°32' E 007°02'0 0.0
2015-Jul-27 05:31N 43°32' E 007°02'0 0.0
2015-Jul-27 04:25N 43°32' E 007°02'0 0.0
2015-Jul-27 03:25N 43°32' E 007°02'0 0.0
2015-Jul-27 02:25N 43°32' E 007°02'0 0.0
2015-Jul-27 01:25N 43°32' E 007°02'0 0.0
2015-Jul-27 00:07N 43°32' E 007°02'0 0.0
2015-Jul-26 23:31N 43°32' E 007°02'0 0.0
2015-Jul-26 21:31N 43°32' E 007°02'0 0.0
2015-Jul-26 20:31N 43°32' E 007°02'0 0.0
2015-Jul-26 19:31N 43°32' E 007°02'0 0.0
2015-Jul-26 18:19N 43°32' E 007°02'0 0.0
2015-Jul-26 17:15N 43°32' E 007°02'0 0.0
2015-Jul-26 16:25N 43°32' E 007°02'0 0.0
2015-Jul-26 15:19N 43°32' E 007°02'0 0.0
2015-Jul-26 14:16N 43°32' E 007°02'0 0.0
2015-Jul-26 13:33N 43°32' E 007°02'0 0.0
2015-Jul-26 07:34N 43°32' E 007°02'0 0.0
2015-Jul-26 00:22N 43°32' E 007°02'0 0.0
2015-Jul-25 23:10N 43°32' E 007°02'0 0.0
2015-Jul-25 21:22N 43°32' E 007°02'0 0.0
2015-Jul-25 19:31N 43°32' E 007°02'0 0.0
2015-Jul-25 18:28N 43°32' E 007°02'0 0.0
2015-Jul-25 17:22N 43°32' E 007°02'0 0.0
2015-Jul-25 16:16N 43°32' E 007°02'0 0.0
2015-Jul-25 14:05N 43°32' E 007°02'0 0.0
2015-Jul-25 13:28N 43°32' E 007°02'0 0.0
2015-Jul-25 11:22N 43°32' E 007°02'0 0.0
2015-Jul-25 10:28N 43°32' E 007°02'0 0.0
2015-Jul-25 08:16N 43°32' E 007°02'0 0.1
2015-Jul-25 07:33N 43°32' E 007°02'1110.6
2015-Jul-25 06:32N 43°24' E 006°53'1111.7
2015-Jul-25 05:33N 43°18' E 006°40'2 0.1
2015-Jul-24 16:04N 43°16' E 006°38'0 0.0
2015-Jul-24 15:04N 43°16' E 006°38'0 0.0
2015-Jul-24 12:16N 43°16' E 006°38'0 0.0
2015-Jul-24 11:28N 43°16' E 006°38'0 0.0
2015-Jul-24 10:16N 43°16' E 006°38'0 0.0
2015-Jul-24 09:22N 43°16' E 006°38'0 0.0
2015-Jul-24 08:22N 43°16' E 006°38'0 0.0
2015-Jul-24 07:28N 43°16' E 006°38'0 0.0
2015-Jul-24 06:10N 43°16' E 006°38'0 0.0
2015-Jul-24 05:22N 43°16' E 006°38'0 0.0
2015-Jul-24 04:22N 43°16' E 006°38'0 0.0
2015-Jul-24 03:28N 43°16' E 006°38'0 0.0
2015-Jul-24 02:28N 43°16' E 006°38'0 0.0
2015-Jul-24 01:04N 43°16' E 006°38'0 0.0
2015-Jul-24 00:28N 43°16' E 006°38'0 0.0
2015-Jul-23 23:28N 43°16' E 006°38'0 0.0
2015-Jul-23 22:28N 43°16' E 006°38'0 0.0
2015-Jul-23 21:28N 43°16' E 006°38'0 0.0
2015-Jul-23 16:28N 43°16' E 006°38'1 1.3
2015-Jul-23 15:32N 43°16' E 006°40'0 0.0
2015-Jul-23 14:31N 43°16' E 006°40'0 0.0
2015-Jul-23 13:13N 43°16' E 006°40'0 0.0
2015-Jul-23 12:28N 43°16' E 006°40'0 0.0
2015-Jul-23 11:22N 43°16' E 006°40'0 0.0
2015-Jul-23 10:31N 43°16' E 006°40'0 0.0
2015-Jul-23 09:22N 43°16' E 006°40'0 0.0
2015-Jul-23 08:31N 43°16' E 006°40'1 1.2
2015-Jul-23 07:32N 43°16' E 006°38'0 0.0
2015-Jul-23 06:31N 43°16' E 006°38'0 0.0
2015-Jul-23 05:07N 43°16' E 006°38'0 0.0
2015-Jul-22 19:13N 43°16' E 006°38'0 0.0
2015-Jul-22 18:31N 43°16' E 006°38'0 0.0
2015-Jul-22 17:31N 43°16' E 006°38'0 0.0
2015-Jul-22 16:33N 43°16' E 006°38'4 3.8
2015-Jul-22 15:33N 43°19' E 006°42'1 1.2
2015-Jul-22 14:27N 43°19' E 006°40'0 0.0
2015-Jul-22 13:27N 43°19' E 006°40'0 0.0
2015-Jul-22 12:33N 43°19' E 006°40'0 0.0
2015-Jul-22 11:27N 43°19' E 006°40'0 0.0
2015-Jul-22 10:30N 43°19' E 006°40'0 0.0
2015-Jul-22 09:27N 43°19' E 006°40'2 2.4
2015-Jul-22 08:33N 43°20' E 006°43'1211.7
2015-Jul-22 07:29N 43°27' E 006°57'6 6.8
2015-Jul-22 06:33N 43°32' E 007°02'0 0.0
2015-Jul-22 05:31N 43°32' E 007°02'0 0.0
2015-Jul-22 04:31N 43°32' E 007°02'0 0.0
2015-Jul-22 02:04N 43°32' E 007°02'0 0.0
2015-Jul-22 00:31N 43°32' E 007°02'0 0.0
2015-Jul-21 23:19N 43°32' E 007°02'0 0.0
2015-Jul-21 22:33N 43°32' E 007°02'0 0.0
2015-Jul-21 21:33N 43°32' E 007°02'0 0.0
2015-Jul-21 20:33N 43°32' E 007°02'0 0.0
2015-Jul-21 19:32N 43°32' E 007°02'0 0.0
2015-Jul-21 18:33N 43°32' E 007°02'0 0.0
2015-Jul-21 17:33N 43°32' E 007°02'0 0.0
2015-Jul-21 16:33N 43°32' E 007°02'0 0.0
2015-Jul-21 15:33N 43°32' E 007°02'1 1.4
2015-Jul-21 14:32N 43°31' E 007°01'1010.6
2015-Jul-21 13:33N 43°36' E 007°14'7 4.9
2015-Jul-21 12:10N 43°42' E 007°19'0 0.0
2015-Jul-21 10:22N 43°42' E 007°19'0 0.0
2015-Jul-21 07:04N 43°42' E 007°19'3 4.9
2015-Jul-21 06:33N 43°42' E 007°23'  

Dump ship's entire track history